ESDF/RNB METAR and TAF weather

Enter ICAO airport designator
Station Type Date Time Source
ESDF METAR 2018/01/16 08:50 UTC NOAA

ESDF 160850Z 16013KT 1500 SN VV003 00/M00 Q0987


Station Type Date Time Source
ESDF Decoded METAR 2018/01/16 08:50 UTC NOAA

Ronneby, Sweden (ESDF) 56-16N 015-17E 74M
Jan 16, 2018 - 03:50 AM EST / 2018.01.16 0850 UTC
Wind: from the SSE (160 degrees) at 15 MPH (13 KT):0
Visibility: less than 1 mile:0
Sky conditions: obscured
Weather: snow
Temperature: 32 F (0 C)
Windchill: 21 F (-6 C):1
Dew Point: 32 F (0 C)
Relative Humidity: 100%
Pressure (altimeter): 29.15 in. Hg (0987 hPa)
ob: ESDF 160850Z 16013KT 1500 SN VV003 00/M00 Q0987
cycle: 9

Station Type Date Time Source
ESDF TAF 2017/09/21 09:45 UTC NOAA

TAF
AMD TAF
AMD ESDF 210840Z 2109/2121 01003KT 9999 BKN012
BECMG 2109/2110 SCT020 PROB30 2120/2121 0600 FG VV002
RMK MIL


Example: see airport list